TimePDT,TemperatureF,Dew PointF,Humidity,Sea Level PressureIn,VisibilityMPH,Wind Direction,Wind SpeedMPH,Gust SpeedMPH,PrecipitationIn,Events,Conditions,WindDirDegrees,DateUTC
12:52 AM,48.0,43.0,83,29.86,-9999.0,ENE,5.8,-,N/A,,Unknown,70,2011-10-04 07:52:00
1:52 AM,46.9,42.1,83,29.85,-9999.0,East,4.6,-,N/A,,Unknown,80,2011-10-04 08:52:00
2:52 AM,48.0,43.0,83,29.85,-9999.0,Calm,Calm,-,N/A,,Unknown,0,2011-10-04 09:52:00
3:52 AM,54.0,48.0,80,29.83,-9999.0,WSW,6.9,-,N/A,,Unknown,240,2011-10-04 10:52:00
4:52 AM,54.0,48.0,80,29.85,-9999.0,West,5.8,-,N/A,,Unknown,260,2011-10-04 11:52:00
5:52 AM,54.0,48.9,83,29.86,-9999.0,West,4.6,-,N/A,,Unknown,280,2011-10-04 12:52:00
6:52 AM,53.1,48.9,86,29.88,-9999.0,SSW,5.8,-,N/A,,Unknown,210,2011-10-04 13:52:00
7:52 AM,54.0,48.9,83,29.89,-9999.0,SW,8.1,-,N/A,,Unknown,230,2011-10-04 14:52:00
8:52 AM,55.9,48.0,75,29.90,-9999.0,SW,13.8,-,N/A,,Unknown,230,2011-10-04 15:52:00
9:52 AM,57.0,45.0,64,29.90,-9999.0,SSW,10.4,-,N/A,,Unknown,210,2011-10-04 16:52:00
10:52 AM,55.9,46.9,72,29.91,-9999.0,WSW,12.7,-,N/A,,Unknown,250,2011-10-04 17:52:00
11:52 AM,55.0,50.0,83,29.91,-9999.0,WSW,10.4,-,0.01,,Unknown,240,2011-10-04 18:52:00
12:52 PM,55.9,48.9,77,29.89,-9999.0,WSW,11.5,21.9,N/A,,Unknown,250,2011-10-04 19:52:00
1:52 PM,55.0,51.1,86,29.88,-9999.0,SW,13.8,-,N/A,,Unknown,230,2011-10-04 20:52:00
2:52 PM,57.0,48.9,74,29.89,-9999.0,West,12.7,19.6,N/A,,Unknown,260,2011-10-04 21:52:00
3:52 PM,59.0,48.0,67,29.87,-9999.0,West,12.7,20.7,N/A,,Unknown,270,2011-10-04 22:52:00
4:52 PM,59.0,46.9,64,29.88,-9999.0,WSW,13.8,19.6,N/A,,Unknown,250,2011-10-04 23:52:00
5:52 PM,57.0,48.0,72,29.88,-9999.0,WSW,15.0,-,N/A,,Unknown,240,2011-10-05 00:52:00
6:52 PM,55.0,48.0,77,29.89,-9999.0,SW,13.8,-,N/A,,Unknown,230,2011-10-05 01:52:00
7:52 PM,53.1,48.9,86,29.90,-9999.0,SW,10.4,-,N/A,,Unknown,230,2011-10-05 02:52:00
8:52 PM,53.1,48.9,86,29.91,-9999.0,SW,13.8,-,N/A,,Unknown,230,2011-10-05 03:52:00
9:52 PM,52.0,48.9,89,29.91,-9999.0,SW,10.4,-,N/A,,Unknown,230,2011-10-05 04:52:00
10:52 PM,52.0,48.0,86,29.91,-9999.0,West,3.5,-,N/A,,Unknown,260,2011-10-05 05:52:00
11:52 PM,51.1,46.0,83,29.92,-9999.0,WSW,5.8,-,N/A,,Unknown,240,2011-10-05 06:52:00